Terminal Aerodrome Forecast
Issued by NWS

Home | Current Version | Previous Version | Graphics & Text | Print | Product List | Glossary On
Versions: 1 2 3 4 5 6 7 8 9 10 11 12 13 14 15 16 17 18
000
FTUS43 KFGF 292300
TAFBJI
TAF
KBJI 292320Z 3000/3024 VRB04KT P6SM SKC
      TEMPO 3009/3013 4SM BR
     FM301500 12010KT P6SM SCT025
     FM301800 12012G17KT P6SM SCT030=

USA.gov is the U.S. government's official web portal to all federal, state and local government web resources and services.